sensor_id;sensor_type;location;lat;lon;timestamp;P1;durP1;ratioP1;P2;durP2;ratioP2
54875;SDS011;40764;48.472;8.166;2023-07-31T00:01:35;8.03;;;3.07;;
54875;SDS011;40764;48.472;8.166;2023-07-31T00:07:36;10.07;;;3.93;;
54875;SDS011;40764;48.472;8.166;2023-07-31T00:13:36;12.48;;;3.15;;
54875;SDS011;40764;48.472;8.166;2023-07-31T00:19:36;9.70;;;3.17;;
54875;SDS011;40764;48.472;8.166;2023-07-31T00:25:37;9.07;;;3.20;;
54875;SDS011;40764;48.472;8.166;2023-07-31T00:31:37;12.77;;;3.10;;
54875;SDS011;40764;48.472;8.166;2023-07-31T00:37:37;9.73;;;3.55;;
54875;SDS011;40764;48.472;8.166;2023-07-31T00:43:38;14.27;;;2.97;;
54875;SDS011;40764;48.472;8.166;2023-07-31T00:49:38;7.57;;;3.23;;
54875;SDS011;40764;48.472;8.166;2023-07-31T00:55:38;16.67;;;5.13;;
54875;SDS011;40764;48.472;8.166;2023-07-31T01:01:39;8.03;;;3.33;;
54875;SDS011;40764;48.472;8.166;2023-07-31T01:07:46;6.13;;;3.07;;
54875;SDS011;40764;48.472;8.166;2023-07-31T01:14:01;7.18;;;2.78;;
54875;SDS011;40764;48.472;8.166;2023-07-31T01:20:03;10.77;;;3.23;;
54875;SDS011;40764;48.472;8.166;2023-07-31T01:26:12;7.65;;;3.15;;
54875;SDS011;40764;48.472;8.166;2023-07-31T01:32:19;8.68;;;2.88;;
54875;SDS011;40764;48.472;8.166;2023-07-31T01:38:22;9.87;;;3.17;;
54875;SDS011;40764;48.472;8.166;2023-07-31T01:44:23;6.85;;;2.90;;
54875;SDS011;40764;48.472;8.166;2023-07-31T01:50:23;5.43;;;3.13;;
54875;SDS011;40764;48.472;8.166;2023-07-31T01:56:23;8.73;;;3.35;;
54875;SDS011;40764;48.472;8.166;2023-07-31T02:02:24;4.60;;;2.70;;
54875;SDS011;40764;48.472;8.166;2023-07-31T02:08:24;12.20;;;3.43;;
54875;SDS011;40764;48.472;8.166;2023-07-31T02:14:24;5.65;;;2.83;;
54875;SDS011;40764;48.472;8.166;2023-07-31T02:20:25;8.57;;;3.25;;
54875;SDS011;40764;48.472;8.166;2023-07-31T02:26:25;8.60;;;3.13;;
54875;SDS011;40764;48.472;8.166;2023-07-31T02:32:26;12.07;;;3.63;;
54875;SDS011;40764;48.472;8.166;2023-07-31T02:38:26;12.13;;;3.78;;
54875;SDS011;40764;48.472;8.166;2023-07-31T02:44:26;9.38;;;3.40;;
54875;SDS011;40764;48.472;8.166;2023-07-31T02:50:27;16.50;;;3.83;;
54875;SDS011;40764;48.472;8.166;2023-07-31T02:56:28;14.97;;;4.13;;
54875;SDS011;40764;48.472;8.166;2023-07-31T03:02:28;10.30;;;3.88;;
54875;SDS011;40764;48.472;8.166;2023-07-31T03:08:29;6.55;;;4.03;;
54875;SDS011;40764;48.472;8.166;2023-07-31T03:14:29;6.82;;;3.78;;
54875;SDS011;40764;48.472;8.166;2023-07-31T03:20:30;8.77;;;4.53;;
54875;SDS011;40764;48.472;8.166;2023-07-31T03:26:33;10.57;;;3.88;;
54875;SDS011;40764;48.472;8.166;2023-07-31T03:32:33;16.27;;;3.38;;
54875;SDS011;40764;48.472;8.166;2023-07-31T03:38:34;12.30;;;3.35;;
54875;SDS011;40764;48.472;8.166;2023-07-31T03:44:34;10.93;;;3.53;;
54875;SDS011;40764;48.472;8.166;2023-07-31T03:50:35;7.85;;;3.47;;
54875;SDS011;40764;48.472;8.166;2023-07-31T03:56:35;12.60;;;3.63;;
54875;SDS011;40764;48.472;8.166;2023-07-31T04:02:36;17.47;;;3.83;;
54875;SDS011;40764;48.472;8.166;2023-07-31T04:08:36;7.97;;;3.22;;
54875;SDS011;40764;48.472;8.166;2023-07-31T04:14:36;8.48;;;3.58;;
54875;SDS011;40764;48.472;8.166;2023-07-31T04:20:39;7.43;;;2.95;;
54875;SDS011;40764;48.472;8.166;2023-07-31T04:26:41;9.77;;;3.47;;
54875;SDS011;40764;48.472;8.166;2023-07-31T04:32:41;8.82;;;3.08;;
54875;SDS011;40764;48.472;8.166;2023-07-31T04:38:44;12.97;;;3.33;;
54875;SDS011;40764;48.472;8.166;2023-07-31T04:44:44;10.80;;;4.00;;
54875;SDS011;40764;48.472;8.166;2023-07-31T04:50:44;10.47;;;3.73;;
54875;SDS011;40764;48.472;8.166;2023-07-31T04:56:45;8.50;;;3.05;;
54875;SDS011;40764;48.472;8.166;2023-07-31T05:02:45;5.95;;;3.20;;
54875;SDS011;40764;48.472;8.166;2023-07-31T05:08:45;11.60;;;3.15;;
54875;SDS011;40764;48.472;8.166;2023-07-31T05:14:46;9.02;;;3.50;;
54875;SDS011;40764;48.472;8.166;2023-07-31T05:20:46;7.57;;;2.78;;
54875;SDS011;40764;48.472;8.166;2023-07-31T05:26:47;5.78;;;2.88;;
54875;SDS011;40764;48.472;8.166;2023-07-31T05:32:48;15.48;;;6.50;;
54875;SDS011;40764;48.472;8.166;2023-07-31T05:38:48;8.55;;;3.22;;
54875;SDS011;40764;48.472;8.166;2023-07-31T05:44:48;5.90;;;2.80;;
54875;SDS011;40764;48.472;8.166;2023-07-31T05:50:49;5.28;;;2.88;;
54875;SDS011;40764;48.472;8.166;2023-07-31T05:56:49;9.07;;;2.90;;
54875;SDS011;40764;48.472;8.166;2023-07-31T06:02:53;13.70;;;3.17;;
54875;SDS011;40764;48.472;8.166;2023-07-31T06:08:53;5.03;;;2.17;;
54875;SDS011;40764;48.472;8.166;2023-07-31T06:14:53;7.45;;;2.40;;
54875;SDS011;40764;48.472;8.166;2023-07-31T06:20:54;5.97;;;3.50;;
54875;SDS011;40764;48.472;8.166;2023-07-31T06:26:55;4.30;;;2.30;;
54875;SDS011;40764;48.472;8.166;2023-07-31T06:38:57;10.13;;;2.60;;
54875;SDS011;40764;48.472;8.166;2023-07-31T06:44:58;6.82;;;2.70;;
54875;SDS011;40764;48.472;8.166;2023-07-31T06:51:00;7.53;;;3.47;;
54875;SDS011;40764;48.472;8.166;2023-07-31T06:57:01;11.57;;;4.28;;
54875;SDS011;40764;48.472;8.166;2023-07-31T07:03:01;10.77;;;3.38;;
54875;SDS011;40764;48.472;8.166;2023-07-31T07:09:03;13.80;;;2.33;;
54875;SDS011;40764;48.472;8.166;2023-07-31T07:15:10;8.77;;;2.40;;
54875;SDS011;40764;48.472;8.166;2023-07-31T07:21:10;8.90;;;2.97;;
54875;SDS011;40764;48.472;8.166;2023-07-31T07:27:15;10.27;;;3.00;;
54875;SDS011;40764;48.472;8.166;2023-07-31T07:33:16;7.60;;;3.17;;
54875;SDS011;40764;48.472;8.166;2023-07-31T07:39:16;9.67;;;2.03;;
54875;SDS011;40764;48.472;8.166;2023-07-31T07:45:16;7.95;;;2.10;;
54875;SDS011;40764;48.472;8.166;2023-07-31T07:51:17;8.55;;;2.78;;
54875;SDS011;40764;48.472;8.166;2023-07-31T07:57:17;8.60;;;2.28;;
54875;SDS011;40764;48.472;8.166;2023-07-31T08:03:18;7.13;;;2.23;;
54875;SDS011;40764;48.472;8.166;2023-07-31T08:09:18;5.90;;;2.07;;
54875;SDS011;40764;48.472;8.166;2023-07-31T08:15:19;12.13;;;2.83;;
54875;SDS011;40764;48.472;8.166;2023-07-31T08:21:19;7.60;;;2.50;;
54875;SDS011;40764;48.472;8.166;2023-07-31T08:27:20;5.00;;;2.43;;
54875;SDS011;40764;48.472;8.166;2023-07-31T08:33:20;7.27;;;2.40;;
54875;SDS011;40764;48.472;8.166;2023-07-31T08:39:21;9.30;;;2.60;;
54875;SDS011;40764;48.472;8.166;2023-07-31T08:45:23;13.32;;;2.58;;
54875;SDS011;40764;48.472;8.166;2023-07-31T08:51:23;8.32;;;3.00;;
54875;SDS011;40764;48.472;8.166;2023-07-31T08:57:24;11.75;;;3.65;;
54875;SDS011;40764;48.472;8.166;2023-07-31T09:03:24;4.70;;;2.40;;
54875;SDS011;40764;48.472;8.166;2023-07-31T09:09:26;14.65;;;3.17;;
54875;SDS011;40764;48.472;8.166;2023-07-31T09:15:27;9.73;;;2.75;;
54875;SDS011;40764;48.472;8.166;2023-07-31T09:27:37;7.77;;;2.77;;
54875;SDS011;40764;48.472;8.166;2023-07-31T09:33:56;7.03;;;2.97;;
54875;SDS011;40764;48.472;8.166;2023-07-31T09:39:56;9.32;;;2.80;;
54875;SDS011;40764;48.472;8.166;2023-07-31T09:45:58;7.43;;;2.72;;
54875;SDS011;40764;48.472;8.166;2023-07-31T09:51:59;12.35;;;3.45;;
54875;SDS011;40764;48.472;8.166;2023-07-31T09:57:59;8.68;;;2.53;;
54875;SDS011;40764;48.472;8.166;2023-07-31T10:04:03;8.82;;;2.55;;
54875;SDS011;40764;48.472;8.166;2023-07-31T10:10:05;5.82;;;2.72;;
54875;SDS011;40764;48.472;8.166;2023-07-31T10:16:07;11.00;;;2.38;;
54875;SDS011;40764;48.472;8.166;2023-07-31T10:22:08;7.07;;;2.57;;
54875;SDS011;40764;48.472;8.166;2023-07-31T10:28:09;8.07;;;2.40;;
54875;SDS011;40764;48.472;8.166;2023-07-31T10:34:11;6.03;;;2.42;;
54875;SDS011;40764;48.472;8.166;2023-07-31T10:46:25;5.47;;;2.15;;
54875;SDS011;40764;48.472;8.166;2023-07-31T10:52:27;5.45;;;2.35;;
54875;SDS011;40764;48.472;8.166;2023-07-31T10:58:37;9.93;;;2.67;;
54875;SDS011;40764;48.472;8.166;2023-07-31T11:04:41;6.60;;;2.50;;
54875;SDS011;40764;48.472;8.166;2023-07-31T11:10:42;10.48;;;2.40;;
54875;SDS011;40764;48.472;8.166;2023-07-31T11:16:44;6.85;;;2.65;;
54875;SDS011;40764;48.472;8.166;2023-07-31T11:28:48;9.65;;;2.30;;
54875;SDS011;40764;48.472;8.166;2023-07-31T11:34:52;11.07;;;2.67;;
54875;SDS011;40764;48.472;8.166;2023-07-31T11:40:55;6.22;;;2.15;;
54875;SDS011;40764;48.472;8.166;2023-07-31T11:46:57;6.68;;;2.22;;
54875;SDS011;40764;48.472;8.166;2023-07-31T11:52:59;5.97;;;2.30;;
54875;SDS011;40764;48.472;8.166;2023-07-31T11:59:03;7.32;;;2.72;;
54875;SDS011;40764;48.472;8.166;2023-07-31T12:05:06;10.38;;;2.47;;
54875;SDS011;40764;48.472;8.166;2023-07-31T12:11:10;11.00;;;2.78;;
54875;SDS011;40764;48.472;8.166;2023-07-31T12:17:11;7.17;;;2.60;;
54875;SDS011;40764;48.472;8.166;2023-07-31T12:35:51;7.70;;;2.65;;
54875;SDS011;40764;48.472;8.166;2023-07-31T12:41:52;7.20;;;2.17;;
54875;SDS011;40764;48.472;8.166;2023-07-31T12:47:53;8.40;;;2.47;;
54875;SDS011;40764;48.472;8.166;2023-07-31T12:53:57;6.63;;;2.85;;
54875;SDS011;40764;48.472;8.166;2023-07-31T12:59:57;6.07;;;2.22;;
54875;SDS011;40764;48.472;8.166;2023-07-31T13:06:00;9.65;;;2.67;;
54875;SDS011;40764;48.472;8.166;2023-07-31T13:12:03;13.07;;;2.97;;
54875;SDS011;40764;48.472;8.166;2023-07-31T13:18:03;5.03;;;2.55;;
54875;SDS011;40764;48.472;8.166;2023-07-31T13:24:04;6.30;;;2.67;;
54875;SDS011;40764;48.472;8.166;2023-07-31T13:30:04;8.30;;;3.40;;
54875;SDS011;40764;48.472;8.166;2023-07-31T13:42:07;8.23;;;3.00;;
54875;SDS011;40764;48.472;8.166;2023-07-31T13:48:08;9.02;;;2.88;;
54875;SDS011;40764;48.472;8.166;2023-07-31T13:54:09;5.13;;;2.13;;
54875;SDS011;40764;48.472;8.166;2023-07-31T14:00:11;5.32;;;2.10;;
54875;SDS011;40764;48.472;8.166;2023-07-31T14:06:12;5.78;;;2.72;;
54875;SDS011;40764;48.472;8.166;2023-07-31T14:12:13;11.03;;;2.70;;
54875;SDS011;40764;48.472;8.166;2023-07-31T14:18:13;5.30;;;2.20;;
54875;SDS011;40764;48.472;8.166;2023-07-31T14:24:13;5.57;;;2.50;;
54875;SDS011;40764;48.472;8.166;2023-07-31T14:30:14;6.00;;;2.83;;
54875;SDS011;40764;48.472;8.166;2023-07-31T14:36:14;5.17;;;2.47;;
54875;SDS011;40764;48.472;8.166;2023-07-31T14:42:14;7.23;;;2.50;;
54875;SDS011;40764;48.472;8.166;2023-07-31T14:48:16;8.80;;;2.50;;
54875;SDS011;40764;48.472;8.166;2023-07-31T14:54:16;7.57;;;2.85;;
54875;SDS011;40764;48.472;8.166;2023-07-31T15:00:17;6.80;;;2.40;;
54875;SDS011;40764;48.472;8.166;2023-07-31T15:06:17;7.50;;;2.70;;
54875;SDS011;40764;48.472;8.166;2023-07-31T15:12:17;12.60;;;3.33;;
54875;SDS011;40764;48.472;8.166;2023-07-31T15:18:18;5.47;;;2.53;;
54875;SDS011;40764;48.472;8.166;2023-07-31T15:24:18;4.67;;;2.70;;
54875;SDS011;40764;48.472;8.166;2023-07-31T15:30:20;15.95;;;4.10;;
54875;SDS011;40764;48.472;8.166;2023-07-31T15:36:20;9.05;;;3.00;;
54875;SDS011;40764;48.472;8.166;2023-07-31T15:42:21;8.57;;;3.33;;
54875;SDS011;40764;48.472;8.166;2023-07-31T15:48:21;5.57;;;3.00;;
54875;SDS011;40764;48.472;8.166;2023-07-31T15:54:21;8.57;;;3.00;;
54875;SDS011;40764;48.472;8.166;2023-07-31T16:00:22;5.78;;;2.97;;
54875;SDS011;40764;48.472;8.166;2023-07-31T16:06:22;11.13;;;3.30;;
54875;SDS011;40764;48.472;8.166;2023-07-31T16:12:26;6.15;;;2.40;;
54875;SDS011;40764;48.472;8.166;2023-07-31T16:18:26;8.77;;;2.67;;
54875;SDS011;40764;48.472;8.166;2023-07-31T16:24:26;8.77;;;2.77;;
54875;SDS011;40764;48.472;8.166;2023-07-31T16:30:27;9.85;;;2.75;;
54875;SDS011;40764;48.472;8.166;2023-07-31T16:36:28;12.77;;;2.93;;
54875;SDS011;40764;48.472;8.166;2023-07-31T16:42:28;5.88;;;2.90;;
54875;SDS011;40764;48.472;8.166;2023-07-31T16:48:29;7.32;;;2.92;;
54875;SDS011;40764;48.472;8.166;2023-07-31T16:54:29;4.95;;;2.30;;
54875;SDS011;40764;48.472;8.166;2023-07-31T17:00:30;6.13;;;2.30;;
54875;SDS011;40764;48.472;8.166;2023-07-31T17:06:30;4.97;;;2.63;;
54875;SDS011;40764;48.472;8.166;2023-07-31T17:12:30;5.80;;;2.67;;
54875;SDS011;40764;48.472;8.166;2023-07-31T17:18:31;9.48;;;2.45;;
54875;SDS011;40764;48.472;8.166;2023-07-31T17:24:31;8.47;;;2.80;;
54875;SDS011;40764;48.472;8.166;2023-07-31T17:30:36;10.63;;;3.50;;
54875;SDS011;40764;48.472;8.166;2023-07-31T17:36:36;10.98;;;2.88;;
54875;SDS011;40764;48.472;8.166;2023-07-31T17:42:37;8.47;;;3.30;;
54875;SDS011;40764;48.472;8.166;2023-07-31T17:48:37;9.13;;;2.63;;
54875;SDS011;40764;48.472;8.166;2023-07-31T17:54:41;9.40;;;3.93;;
54875;SDS011;40764;48.472;8.166;2023-07-31T18:00:42;12.25;;;4.10;;
54875;SDS011;40764;48.472;8.166;2023-07-31T18:06:46;11.85;;;3.60;;
54875;SDS011;40764;48.472;8.166;2023-07-31T18:12:47;8.60;;;3.67;;
54875;SDS011;40764;48.472;8.166;2023-07-31T18:18:48;8.45;;;3.75;;
54875;SDS011;40764;48.472;8.166;2023-07-31T18:24:50;6.43;;;3.67;;
54875;SDS011;40764;48.472;8.166;2023-07-31T18:31:01;10.50;;;4.85;;
54875;SDS011;40764;48.472;8.166;2023-07-31T18:37:02;13.63;;;5.40;;
54875;SDS011;40764;48.472;8.166;2023-07-31T18:43:04;9.82;;;4.82;;
54875;SDS011;40764;48.472;8.166;2023-07-31T18:49:04;9.60;;;4.73;;
54875;SDS011;40764;48.472;8.166;2023-07-31T18:55:05;13.90;;;4.53;;
54875;SDS011;40764;48.472;8.166;2023-07-31T19:01:07;11.70;;;4.97;;
54875;SDS011;40764;48.472;8.166;2023-07-31T19:07:07;18.70;;;5.47;;
54875;SDS011;40764;48.472;8.166;2023-07-31T19:13:08;13.05;;;5.13;;
54875;SDS011;40764;48.472;8.166;2023-07-31T19:19:08;14.23;;;5.50;;
54875;SDS011;40764;48.472;8.166;2023-07-31T19:25:10;12.83;;;4.97;;
54875;SDS011;40764;48.472;8.166;2023-07-31T19:31:13;13.75;;;5.90;;
54875;SDS011;40764;48.472;8.166;2023-07-31T19:37:14;13.45;;;4.65;;
54875;SDS011;40764;48.472;8.166;2023-07-31T19:43:14;15.73;;;5.00;;
54875;SDS011;40764;48.472;8.166;2023-07-31T19:49:14;10.93;;;4.85;;
54875;SDS011;40764;48.472;8.166;2023-07-31T19:55:15;16.40;;;6.38;;
54875;SDS011;40764;48.472;8.166;2023-07-31T20:01:15;11.27;;;4.30;;
54875;SDS011;40764;48.472;8.166;2023-07-31T20:07:15;14.73;;;5.07;;
54875;SDS011;40764;48.472;8.166;2023-07-31T20:13:16;15.93;;;4.90;;
54875;SDS011;40764;48.472;8.166;2023-07-31T20:19:16;10.83;;;5.17;;
54875;SDS011;40764;48.472;8.166;2023-07-31T20:25:16;7.60;;;4.10;;
54875;SDS011;40764;48.472;8.166;2023-07-31T20:31:17;12.05;;;4.35;;
54875;SDS011;40764;48.472;8.166;2023-07-31T20:37:18;9.40;;;4.57;;
54875;SDS011;40764;48.472;8.166;2023-07-31T20:43:19;15.18;;;4.85;;
54875;SDS011;40764;48.472;8.166;2023-07-31T20:49:19;11.03;;;4.80;;
54875;SDS011;40764;48.472;8.166;2023-07-31T20:55:19;12.75;;;5.88;;
54875;SDS011;40764;48.472;8.166;2023-07-31T21:01:20;11.18;;;4.97;;
54875;SDS011;40764;48.472;8.166;2023-07-31T21:07:20;11.37;;;4.87;;
54875;SDS011;40764;48.472;8.166;2023-07-31T21:13:20;12.13;;;5.43;;
54875;SDS011;40764;48.472;8.166;2023-07-31T21:19:21;11.27;;;4.57;;
54875;SDS011;40764;48.472;8.166;2023-07-31T21:25:22;9.60;;;4.57;;
54875;SDS011;40764;48.472;8.166;2023-07-31T21:31:22;10.17;;;5.30;;
54875;SDS011;40764;48.472;8.166;2023-07-31T21:37:22;9.73;;;4.95;;
54875;SDS011;40764;48.472;8.166;2023-07-31T21:43:25;11.95;;;5.70;;
54875;SDS011;40764;48.472;8.166;2023-07-31T21:49:25;9.20;;;4.72;;
54875;SDS011;40764;48.472;8.166;2023-07-31T21:55:27;13.27;;;5.57;;
54875;SDS011;40764;48.472;8.166;2023-07-31T22:01:28;11.20;;;4.95;;
54875;SDS011;40764;48.472;8.166;2023-07-31T22:07:29;12.93;;;5.33;;
54875;SDS011;40764;48.472;8.166;2023-07-31T22:13:30;17.83;;;4.97;;
54875;SDS011;40764;48.472;8.166;2023-07-31T22:19:30;11.65;;;5.22;;
54875;SDS011;40764;48.472;8.166;2023-07-31T22:25:31;16.90;;;5.18;;
54875;SDS011;40764;48.472;8.166;2023-07-31T22:31:31;13.90;;;5.67;;
54875;SDS011;40764;48.472;8.166;2023-07-31T22:37:31;11.90;;;5.37;;
54875;SDS011;40764;48.472;8.166;2023-07-31T22:43:32;8.13;;;4.18;;
54875;SDS011;40764;48.472;8.166;2023-07-31T22:49:34;12.10;;;4.63;;
54875;SDS011;40764;48.472;8.166;2023-07-31T22:55:35;12.27;;;5.50;;
54875;SDS011;40764;48.472;8.166;2023-07-31T23:01:36;14.35;;;5.47;;
54875;SDS011;40764;48.472;8.166;2023-07-31T23:07:38;15.33;;;5.30;;
54875;SDS011;40764;48.472;8.166;2023-07-31T23:13:39;11.52;;;5.55;;
54875;SDS011;40764;48.472;8.166;2023-07-31T23:19:39;11.00;;;6.17;;
54875;SDS011;40764;48.472;8.166;2023-07-31T23:25:39;10.57;;;4.88;;
54875;SDS011;40764;48.472;8.166;2023-07-31T23:31:41;12.27;;;5.47;;
54875;SDS011;40764;48.472;8.166;2023-07-31T23:37:42;13.95;;;6.00;;
54875;SDS011;40764;48.472;8.166;2023-07-31T23:43:43;18.27;;;6.40;;
54875;SDS011;40764;48.472;8.166;2023-07-31T23:49:43;13.63;;;5.10;;
54875;SDS011;40764;48.472;8.166;2023-07-31T23:55:47;14.88;;;6.13;;
